sensor_id;sensor_type;location;lat;lon;timestamp;P1;durP1;ratioP1;P2;durP2;ratioP2
12892;SDS011;6514;48.606;9.222;2023-06-22T00:00:41;8.50;;;5.50;;
12892;SDS011;6514;48.606;9.222;2023-06-22T00:03:08;9.53;;;6.50;;
12892;SDS011;6514;48.606;9.222;2023-06-22T00:05:36;7.47;;;5.97;;
12892;SDS011;6514;48.606;9.222;2023-06-22T00:08:03;7.20;;;6.20;;
12892;SDS011;6514;48.606;9.222;2023-06-22T00:10:31;8.40;;;6.97;;
12892;SDS011;6514;48.606;9.222;2023-06-22T00:12:57;9.67;;;6.60;;
12892;SDS011;6514;48.606;9.222;2023-06-22T00:15:24;8.20;;;6.73;;
12892;SDS011;6514;48.606;9.222;2023-06-22T00:17:51;10.83;;;6.43;;
12892;SDS011;6514;48.606;9.222;2023-06-22T00:20:18;9.00;;;7.17;;
12892;SDS011;6514;48.606;9.222;2023-06-22T00:22:46;9.33;;;6.97;;
12892;SDS011;6514;48.606;9.222;2023-06-22T00:25:13;7.93;;;6.93;;
12892;SDS011;6514;48.606;9.222;2023-06-22T00:27:40;8.03;;;6.53;;
12892;SDS011;6514;48.606;9.222;2023-06-22T00:30:07;7.40;;;6.40;;
12892;SDS011;6514;48.606;9.222;2023-06-22T00:32:34;7.63;;;6.70;;
12892;SDS011;6514;48.606;9.222;2023-06-22T00:35:01;11.73;;;7.20;;
12892;SDS011;6514;48.606;9.222;2023-06-22T00:37:28;9.40;;;7.73;;
12892;SDS011;6514;48.606;9.222;2023-06-22T00:39:56;7.90;;;7.10;;
12892;SDS011;6514;48.606;9.222;2023-06-22T00:42:23;10.57;;;6.93;;
12892;SDS011;6514;48.606;9.222;2023-06-22T00:44:49;10.30;;;6.70;;
12892;SDS011;6514;48.606;9.222;2023-06-22T00:47:17;10.90;;;7.47;;
12892;SDS011;6514;48.606;9.222;2023-06-22T00:49:44;10.30;;;7.47;;
12892;SDS011;6514;48.606;9.222;2023-06-22T00:52:13;8.33;;;7.43;;
12892;SDS011;6514;48.606;9.222;2023-06-22T00:54:45;9.67;;;7.63;;
12892;SDS011;6514;48.606;9.222;2023-06-22T00:57:15;9.53;;;7.57;;
12892;SDS011;6514;48.606;9.222;2023-06-22T00:59:45;7.53;;;6.53;;
12892;SDS011;6514;48.606;9.222;2023-06-22T01:02:13;12.47;;;6.87;;
12892;SDS011;6514;48.606;9.222;2023-06-22T01:04:40;9.20;;;7.03;;
12892;SDS011;6514;48.606;9.222;2023-06-22T01:07:09;8.40;;;6.70;;
12892;SDS011;6514;48.606;9.222;2023-06-22T01:09:42;10.43;;;6.90;;
12892;SDS011;6514;48.606;9.222;2023-06-22T01:12:12;9.13;;;7.57;;
12892;SDS011;6514;48.606;9.222;2023-06-22T01:14:46;8.37;;;6.97;;
12892;SDS011;6514;48.606;9.222;2023-06-22T01:17:18;8.27;;;7.23;;
12892;SDS011;6514;48.606;9.222;2023-06-22T01:19:47;9.83;;;6.93;;
12892;SDS011;6514;48.606;9.222;2023-06-22T01:22:21;9.87;;;7.40;;
12892;SDS011;6514;48.606;9.222;2023-06-22T01:24:52;8.07;;;6.20;;
12892;SDS011;6514;48.606;9.222;2023-06-22T01:27:32;9.80;;;6.70;;
12892;SDS011;6514;48.606;9.222;2023-06-22T01:30:08;8.07;;;6.30;;
12892;SDS011;6514;48.606;9.222;2023-06-22T01:32:37;10.33;;;6.80;;
12892;SDS011;6514;48.606;9.222;2023-06-22T01:35:06;11.30;;;7.30;;
12892;SDS011;6514;48.606;9.222;2023-06-22T01:37:34;9.20;;;7.53;;
12892;SDS011;6514;48.606;9.222;2023-06-22T01:40:02;8.10;;;6.87;;
12892;SDS011;6514;48.606;9.222;2023-06-22T01:42:31;8.30;;;6.23;;
12892;SDS011;6514;48.606;9.222;2023-06-22T01:44:58;8.27;;;6.93;;
12892;SDS011;6514;48.606;9.222;2023-06-22T01:47:27;8.10;;;7.20;;
12892;SDS011;6514;48.606;9.222;2023-06-22T01:49:54;7.83;;;7.03;;
12892;SDS011;6514;48.606;9.222;2023-06-22T01:52:21;9.23;;;7.33;;
12892;SDS011;6514;48.606;9.222;2023-06-22T01:54:48;8.80;;;7.47;;
12892;SDS011;6514;48.606;9.222;2023-06-22T01:57:15;10.10;;;7.73;;
12892;SDS011;6514;48.606;9.222;2023-06-22T01:59:44;9.70;;;7.60;;
12892;SDS011;6514;48.606;9.222;2023-06-22T02:02:18;9.40;;;8.20;;
12892;SDS011;6514;48.606;9.222;2023-06-22T02:04:54;11.27;;;8.33;;
12892;SDS011;6514;48.606;9.222;2023-06-22T02:07:23;10.63;;;8.00;;
12892;SDS011;6514;48.606;9.222;2023-06-22T02:09:57;11.13;;;7.90;;
12892;SDS011;6514;48.606;9.222;2023-06-22T02:12:25;11.87;;;8.07;;
12892;SDS011;6514;48.606;9.222;2023-06-22T02:14:54;10.43;;;6.90;;
12892;SDS011;6514;48.606;9.222;2023-06-22T02:17:21;10.47;;;7.60;;
12892;SDS011;6514;48.606;9.222;2023-06-22T02:19:49;7.90;;;7.10;;
12892;SDS011;6514;48.606;9.222;2023-06-22T02:22:17;8.13;;;7.20;;
12892;SDS011;6514;48.606;9.222;2023-06-22T02:24:44;8.47;;;7.10;;
12892;SDS011;6514;48.606;9.222;2023-06-22T02:27:11;11.40;;;8.10;;
12892;SDS011;6514;48.606;9.222;2023-06-22T02:29:38;8.50;;;7.10;;
12892;SDS011;6514;48.606;9.222;2023-06-22T02:32:05;8.20;;;6.80;;
12892;SDS011;6514;48.606;9.222;2023-06-22T02:34:32;9.33;;;6.77;;
12892;SDS011;6514;48.606;9.222;2023-06-22T02:36:58;10.47;;;8.00;;
12892;SDS011;6514;48.606;9.222;2023-06-22T02:39:27;10.77;;;7.60;;
12892;SDS011;6514;48.606;9.222;2023-06-22T02:41:54;8.87;;;7.43;;
12892;SDS011;6514;48.606;9.222;2023-06-22T02:44:21;9.40;;;6.63;;
12892;SDS011;6514;48.606;9.222;2023-06-22T02:46:48;8.03;;;7.20;;
12892;SDS011;6514;48.606;9.222;2023-06-22T02:49:15;8.27;;;7.00;;
12892;SDS011;6514;48.606;9.222;2023-06-22T02:51:44;10.90;;;6.83;;
12892;SDS011;6514;48.606;9.222;2023-06-22T02:54:12;8.60;;;7.07;;
12892;SDS011;6514;48.606;9.222;2023-06-22T02:56:40;11.97;;;7.53;;
12892;SDS011;6514;48.606;9.222;2023-06-22T02:59:08;9.27;;;6.40;;
12892;SDS011;6514;48.606;9.222;2023-06-22T03:01:36;8.93;;;6.87;;
12892;SDS011;6514;48.606;9.222;2023-06-22T03:04:04;9.33;;;7.60;;
12892;SDS011;6514;48.606;9.222;2023-06-22T03:06:32;9.57;;;7.30;;
12892;SDS011;6514;48.606;9.222;2023-06-22T03:08:59;8.10;;;7.07;;
12892;SDS011;6514;48.606;9.222;2023-06-22T03:11:29;7.93;;;7.13;;
12892;SDS011;6514;48.606;9.222;2023-06-22T03:13:57;8.80;;;6.87;;
12892;SDS011;6514;48.606;9.222;2023-06-22T03:16:24;11.70;;;6.43;;
12892;SDS011;6514;48.606;9.222;2023-06-22T03:18:50;9.37;;;7.13;;
12892;SDS011;6514;48.606;9.222;2023-06-22T03:21:18;9.40;;;6.33;;
12892;SDS011;6514;48.606;9.222;2023-06-22T03:23:45;8.97;;;6.60;;
12892;SDS011;6514;48.606;9.222;2023-06-22T03:26:12;8.67;;;6.63;;
12892;SDS011;6514;48.606;9.222;2023-06-22T03:28:43;10.20;;;7.87;;
12892;SDS011;6514;48.606;9.222;2023-06-22T03:31:11;9.33;;;6.63;;
12892;SDS011;6514;48.606;9.222;2023-06-22T03:33:37;8.27;;;7.07;;
12892;SDS011;6514;48.606;9.222;2023-06-22T03:36:04;9.37;;;7.50;;
12892;SDS011;6514;48.606;9.222;2023-06-22T03:38:32;11.13;;;6.77;;
12892;SDS011;6514;48.606;9.222;2023-06-22T03:40:58;11.00;;;7.97;;
12892;SDS011;6514;48.606;9.222;2023-06-22T03:43:25;9.17;;;7.50;;
12892;SDS011;6514;48.606;9.222;2023-06-22T03:45:52;8.60;;;7.60;;
12892;SDS011;6514;48.606;9.222;2023-06-22T03:48:20;9.43;;;7.27;;
12892;SDS011;6514;48.606;9.222;2023-06-22T03:50:47;12.77;;;8.47;;
12892;SDS011;6514;48.606;9.222;2023-06-22T03:53:13;10.47;;;8.00;;
12892;SDS011;6514;48.606;9.222;2023-06-22T03:55:42;11.40;;;8.40;;
12892;SDS011;6514;48.606;9.222;2023-06-22T03:58:15;10.27;;;7.67;;
12892;SDS011;6514;48.606;9.222;2023-06-22T04:00:43;10.67;;;7.90;;
12892;SDS011;6514;48.606;9.222;2023-06-22T04:03:10;13.67;;;7.63;;
12892;SDS011;6514;48.606;9.222;2023-06-22T04:05:39;11.80;;;7.77;;
12892;SDS011;6514;48.606;9.222;2023-06-22T04:08:05;9.47;;;6.80;;
12892;SDS011;6514;48.606;9.222;2023-06-22T04:10:32;8.47;;;7.60;;
12892;SDS011;6514;48.606;9.222;2023-06-22T04:13:00;9.40;;;7.53;;
12892;SDS011;6514;48.606;9.222;2023-06-22T04:15:27;10.20;;;7.80;;
12892;SDS011;6514;48.606;9.222;2023-06-22T04:17:53;8.67;;;7.57;;
12892;SDS011;6514;48.606;9.222;2023-06-22T04:20:21;12.90;;;7.40;;
12892;SDS011;6514;48.606;9.222;2023-06-22T04:22:51;8.33;;;7.03;;
12892;SDS011;6514;48.606;9.222;2023-06-22T04:25:18;9.17;;;7.60;;
12892;SDS011;6514;48.606;9.222;2023-06-22T04:27:46;10.93;;;7.83;;
12892;SDS011;6514;48.606;9.222;2023-06-22T04:30:13;7.60;;;6.73;;
12892;SDS011;6514;48.606;9.222;2023-06-22T04:32:41;11.30;;;7.57;;
12892;SDS011;6514;48.606;9.222;2023-06-22T04:35:08;9.33;;;7.47;;
12892;SDS011;6514;48.606;9.222;2023-06-22T04:37:35;10.50;;;7.23;;
12892;SDS011;6514;48.606;9.222;2023-06-22T04:40:03;10.80;;;7.00;;
12892;SDS011;6514;48.606;9.222;2023-06-22T04:42:33;7.63;;;6.37;;
12892;SDS011;6514;48.606;9.222;2023-06-22T04:45:00;8.80;;;6.73;;
12892;SDS011;6514;48.606;9.222;2023-06-22T04:47:27;7.37;;;6.67;;
12892;SDS011;6514;48.606;9.222;2023-06-22T04:49:54;8.87;;;6.83;;
12892;SDS011;6514;48.606;9.222;2023-06-22T04:52:20;10.73;;;7.17;;
12892;SDS011;6514;48.606;9.222;2023-06-22T04:54:47;10.03;;;7.27;;
12892;SDS011;6514;48.606;9.222;2023-06-22T04:57:17;11.53;;;7.07;;
12892;SDS011;6514;48.606;9.222;2023-06-22T04:59:43;8.63;;;6.60;;
12892;SDS011;6514;48.606;9.222;2023-06-22T05:02:10;10.27;;;7.23;;
12892;SDS011;6514;48.606;9.222;2023-06-22T05:04:37;8.57;;;7.13;;
12892;SDS011;6514;48.606;9.222;2023-06-22T05:07:04;8.57;;;6.63;;
12892;SDS011;6514;48.606;9.222;2023-06-22T05:09:31;7.80;;;6.77;;
12892;SDS011;6514;48.606;9.222;2023-06-22T05:11:59;7.60;;;6.37;;
12892;SDS011;6514;48.606;9.222;2023-06-22T05:14:28;8.17;;;6.23;;
12892;SDS011;6514;48.606;9.222;2023-06-22T05:16:55;8.77;;;6.53;;
12892;SDS011;6514;48.606;9.222;2023-06-22T05:19:24;10.33;;;6.60;;
12892;SDS011;6514;48.606;9.222;2023-06-22T05:21:56;12.73;;;6.30;;
12892;SDS011;6514;48.606;9.222;2023-06-22T05:24:23;9.67;;;6.43;;
12892;SDS011;6514;48.606;9.222;2023-06-22T05:26:50;7.40;;;5.83;;
12892;SDS011;6514;48.606;9.222;2023-06-22T05:29:16;8.77;;;6.07;;
12892;SDS011;6514;48.606;9.222;2023-06-22T05:31:44;7.13;;;6.27;;
12892;SDS011;6514;48.606;9.222;2023-06-22T05:34:11;6.80;;;5.53;;
12892;SDS011;6514;48.606;9.222;2023-06-22T05:36:38;6.67;;;5.53;;
12892;SDS011;6514;48.606;9.222;2023-06-22T05:39:10;6.40;;;5.70;;
12892;SDS011;6514;48.606;9.222;2023-06-22T05:41:38;6.83;;;5.07;;
12892;SDS011;6514;48.606;9.222;2023-06-22T05:44:05;8.50;;;5.63;;
12892;SDS011;6514;48.606;9.222;2023-06-22T05:46:32;5.87;;;5.27;;
12892;SDS011;6514;48.606;9.222;2023-06-22T05:49:00;6.20;;;4.43;;
12892;SDS011;6514;48.606;9.222;2023-06-22T05:51:27;6.10;;;4.93;;
12892;SDS011;6514;48.606;9.222;2023-06-22T05:53:53;8.77;;;4.80;;
12892;SDS011;6514;48.606;9.222;2023-06-22T05:56:20;5.43;;;4.80;;
12892;SDS011;6514;48.606;9.222;2023-06-22T05:58:47;6.03;;;5.20;;
12892;SDS011;6514;48.606;9.222;2023-06-22T06:01:14;5.30;;;4.57;;
12892;SDS011;6514;48.606;9.222;2023-06-22T06:03:41;7.60;;;4.93;;
12892;SDS011;6514;48.606;9.222;2023-06-22T06:06:10;6.30;;;4.43;;
12892;SDS011;6514;48.606;9.222;2023-06-22T06:08:37;6.47;;;4.87;;
12892;SDS011;6514;48.606;9.222;2023-06-22T06:11:04;5.60;;;4.70;;
12892;SDS011;6514;48.606;9.222;2023-06-22T06:13:31;5.33;;;4.23;;
12892;SDS011;6514;48.606;9.222;2023-06-22T06:15:57;5.43;;;4.20;;
12892;SDS011;6514;48.606;9.222;2023-06-22T06:18:24;7.67;;;4.00;;
12892;SDS011;6514;48.606;9.222;2023-06-22T06:20:51;5.40;;;4.07;;
12892;SDS011;6514;48.606;9.222;2023-06-22T06:23:19;6.37;;;3.80;;
12892;SDS011;6514;48.606;9.222;2023-06-22T06:25:46;6.30;;;3.90;;
12892;SDS011;6514;48.606;9.222;2023-06-22T06:28:13;4.33;;;3.57;;
12892;SDS011;6514;48.606;9.222;2023-06-22T06:30:40;4.80;;;4.03;;
12892;SDS011;6514;48.606;9.222;2023-06-22T06:33:07;5.63;;;3.60;;
12892;SDS011;6514;48.606;9.222;2023-06-22T06:35:34;5.70;;;3.97;;
12892;SDS011;6514;48.606;9.222;2023-06-22T06:38:01;8.03;;;4.33;;
12892;SDS011;6514;48.606;9.222;2023-06-22T06:40:29;5.67;;;3.93;;
12892;SDS011;6514;48.606;9.222;2023-06-22T06:42:56;6.27;;;3.90;;
12892;SDS011;6514;48.606;9.222;2023-06-22T06:45:23;4.17;;;3.37;;
12892;SDS011;6514;48.606;9.222;2023-06-22T06:47:53;4.73;;;3.67;;
12892;SDS011;6514;48.606;9.222;2023-06-22T06:50:20;5.70;;;3.90;;
12892;SDS011;6514;48.606;9.222;2023-06-22T06:52:47;6.90;;;3.93;;
12892;SDS011;6514;48.606;9.222;2023-06-22T06:55:15;5.73;;;4.17;;
12892;SDS011;6514;48.606;9.222;2023-06-22T06:57:43;5.93;;;3.13;;
12892;SDS011;6514;48.606;9.222;2023-06-22T07:00:13;3.83;;;3.40;;
12892;SDS011;6514;48.606;9.222;2023-06-22T07:02:41;6.27;;;3.90;;
12892;SDS011;6514;48.606;9.222;2023-06-22T07:05:09;4.27;;;3.10;;
12892;SDS011;6514;48.606;9.222;2023-06-22T07:07:36;4.83;;;3.10;;
12892;SDS011;6514;48.606;9.222;2023-06-22T07:10:03;4.27;;;3.53;;
12892;SDS011;6514;48.606;9.222;2023-06-22T07:12:31;4.20;;;3.33;;
12892;SDS011;6514;48.606;9.222;2023-06-22T07:15:02;3.67;;;3.03;;
12892;SDS011;6514;48.606;9.222;2023-06-22T07:17:30;5.47;;;3.40;;
12892;SDS011;6514;48.606;9.222;2023-06-22T07:19:57;6.43;;;3.50;;
12892;SDS011;6514;48.606;9.222;2023-06-22T07:22:24;4.57;;;2.70;;
12892;SDS011;6514;48.606;9.222;2023-06-22T07:24:51;4.10;;;2.80;;
12892;SDS011;6514;48.606;9.222;2023-06-22T07:27:18;6.40;;;3.10;;
12892;SDS011;6514;48.606;9.222;2023-06-22T07:29:45;3.60;;;2.97;;
12892;SDS011;6514;48.606;9.222;2023-06-22T07:32:13;7.73;;;3.30;;
12892;SDS011;6514;48.606;9.222;2023-06-22T07:34:40;5.27;;;3.30;;
12892;SDS011;6514;48.606;9.222;2023-06-22T07:37:08;4.60;;;2.90;;
12892;SDS011;6514;48.606;9.222;2023-06-22T07:39:35;4.67;;;3.00;;
12892;SDS011;6514;48.606;9.222;2023-06-22T07:42:03;4.50;;;3.10;;
12892;SDS011;6514;48.606;9.222;2023-06-22T07:44:30;3.57;;;2.90;;
12892;SDS011;6514;48.606;9.222;2023-06-22T07:46:56;3.77;;;3.27;;
12892;SDS011;6514;48.606;9.222;2023-06-22T07:49:25;4.53;;;3.27;;
12892;SDS011;6514;48.606;9.222;2023-06-22T07:51:51;5.77;;;3.30;;
12892;SDS011;6514;48.606;9.222;2023-06-22T07:54:18;4.50;;;3.00;;
12892;SDS011;6514;48.606;9.222;2023-06-22T07:56:45;6.90;;;3.87;;
12892;SDS011;6514;48.606;9.222;2023-06-22T07:59:12;5.97;;;3.40;;
12892;SDS011;6514;48.606;9.222;2023-06-22T08:01:39;6.40;;;3.20;;
12892;SDS011;6514;48.606;9.222;2023-06-22T08:04:06;5.80;;;3.33;;
12892;SDS011;6514;48.606;9.222;2023-06-22T08:06:35;5.20;;;3.23;;
12892;SDS011;6514;48.606;9.222;2023-06-22T08:09:01;4.43;;;3.37;;
12892;SDS011;6514;48.606;9.222;2023-06-22T08:11:29;6.80;;;3.20;;
12892;SDS011;6514;48.606;9.222;2023-06-22T08:13:56;7.70;;;3.63;;
12892;SDS011;6514;48.606;9.222;2023-06-22T08:16:23;5.50;;;3.43;;
12892;SDS011;6514;48.606;9.222;2023-06-22T08:18:50;5.00;;;3.20;;
12892;SDS011;6514;48.606;9.222;2023-06-22T08:21:17;6.13;;;3.43;;
12892;SDS011;6514;48.606;9.222;2023-06-22T08:23:45;5.10;;;3.50;;
12892;SDS011;6514;48.606;9.222;2023-06-22T08:26:12;5.47;;;3.40;;
12892;SDS011;6514;48.606;9.222;2023-06-22T08:28:38;6.67;;;3.80;;
12892;SDS011;6514;48.606;9.222;2023-06-22T08:31:05;4.82;;;3.20;;
12892;SDS011;6514;48.606;9.222;2023-06-22T08:33:32;6.63;;;4.00;;
12892;SDS011;6514;48.606;9.222;2023-06-22T08:35:59;4.43;;;3.35;;
12892;SDS011;6514;48.606;9.222;2023-06-22T08:38:25;8.73;;;3.67;;
12892;SDS011;6514;48.606;9.222;2023-06-22T08:40:53;5.20;;;3.90;;
12892;SDS011;6514;48.606;9.222;2023-06-22T08:43:20;7.95;;;3.80;;
12892;SDS011;6514;48.606;9.222;2023-06-22T08:45:47;6.07;;;4.15;;
12892;SDS011;6514;48.606;9.222;2023-06-22T08:48:14;5.72;;;3.78;;
12892;SDS011;6514;48.606;9.222;2023-06-22T08:50:41;4.60;;;3.58;;
12892;SDS011;6514;48.606;9.222;2023-06-22T08:53:07;6.13;;;3.78;;
12892;SDS011;6514;48.606;9.222;2023-06-22T08:55:36;4.20;;;3.45;;
12892;SDS011;6514;48.606;9.222;2023-06-22T08:58:04;5.35;;;3.53;;
12892;SDS011;6514;48.606;9.222;2023-06-22T09:00:31;4.05;;;3.65;;
12892;SDS011;6514;48.606;9.222;2023-06-22T09:03:00;7.45;;;3.83;;
12892;SDS011;6514;48.606;9.222;2023-06-22T09:05:26;4.72;;;3.65;;
12892;SDS011;6514;48.606;9.222;2023-06-22T09:07:53;6.75;;;3.88;;
12892;SDS011;6514;48.606;9.222;2023-06-22T09:10:21;4.88;;;3.47;;
12892;SDS011;6514;48.606;9.222;2023-06-22T09:12:48;5.88;;;3.30;;
12892;SDS011;6514;48.606;9.222;2023-06-22T09:15:17;5.18;;;3.85;;
12892;SDS011;6514;48.606;9.222;2023-06-22T09:17:43;6.68;;;3.83;;
12892;SDS011;6514;48.606;9.222;2023-06-22T09:20:11;7.32;;;3.75;;
12892;SDS011;6514;48.606;9.222;2023-06-22T09:22:38;5.10;;;3.58;;
12892;SDS011;6514;48.606;9.222;2023-06-22T09:25:05;5.95;;;3.95;;
12892;SDS011;6514;48.606;9.222;2023-06-22T09:27:32;6.68;;;4.05;;
12892;SDS011;6514;48.606;9.222;2023-06-22T09:30:00;7.30;;;3.90;;
12892;SDS011;6514;48.606;9.222;2023-06-22T09:32:30;5.70;;;4.28;;
12892;SDS011;6514;48.606;9.222;2023-06-22T09:34:57;7.13;;;4.30;;
12892;SDS011;6514;48.606;9.222;2023-06-22T09:37:24;4.72;;;3.92;;
12892;SDS011;6514;48.606;9.222;2023-06-22T09:39:50;5.78;;;4.15;;
12892;SDS011;6514;48.606;9.222;2023-06-22T09:42:17;4.65;;;4.25;;
12892;SDS011;6514;48.606;9.222;2023-06-22T09:44:44;6.78;;;4.07;;
12892;SDS011;6514;48.606;9.222;2023-06-22T09:47:11;6.15;;;3.78;;
12892;SDS011;6514;48.606;9.222;2023-06-22T09:49:39;5.45;;;4.13;;
12892;SDS011;6514;48.606;9.222;2023-06-22T09:52:06;6.70;;;3.65;;
12892;SDS011;6514;48.606;9.222;2023-06-22T09:54:33;7.03;;;4.03;;
12892;SDS011;6514;48.606;9.222;2023-06-22T09:57:00;7.07;;;4.30;;
12892;SDS011;6514;48.606;9.222;2023-06-22T09:59:27;4.43;;;3.50;;
12892;SDS011;6514;48.606;9.222;2023-06-22T10:01:54;5.40;;;4.07;;
12892;SDS011;6514;48.606;9.222;2023-06-22T10:04:20;7.50;;;4.20;;
12892;SDS011;6514;48.606;9.222;2023-06-22T10:06:48;7.03;;;4.00;;
12892;SDS011;6514;48.606;9.222;2023-06-22T10:09:15;4.80;;;3.83;;
12892;SDS011;6514;48.606;9.222;2023-06-22T10:11:42;5.63;;;3.67;;
12892;SDS011;6514;48.606;9.222;2023-06-22T10:14:09;7.22;;;3.97;;
12892;SDS011;6514;48.606;9.222;2023-06-22T10:16:36;4.18;;;3.75;;
12892;SDS011;6514;48.606;9.222;2023-06-22T10:19:03;5.85;;;3.55;;
12892;SDS011;6514;48.606;9.222;2023-06-22T10:21:29;5.15;;;3.78;;
12892;SDS011;6514;48.606;9.222;2023-06-22T10:23:58;4.82;;;3.88;;
12892;SDS011;6514;48.606;9.222;2023-06-22T10:26:30;5.05;;;3.58;;
12892;SDS011;6514;48.606;9.222;2023-06-22T10:28:57;4.68;;;3.33;;
12892;SDS011;6514;48.606;9.222;2023-06-22T10:31:24;5.55;;;4.25;;
12892;SDS011;6514;48.606;9.222;2023-06-22T10:33:52;5.68;;;3.92;;
12892;SDS011;6514;48.606;9.222;2023-06-22T10:36:20;4.75;;;4.03;;
12892;SDS011;6514;48.606;9.222;2023-06-22T10:38:47;5.95;;;3.78;;
12892;SDS011;6514;48.606;9.222;2023-06-22T10:41:16;5.55;;;3.92;;
12892;SDS011;6514;48.606;9.222;2023-06-22T10:43:43;8.73;;;4.60;;
12892;SDS011;6514;48.606;9.222;2023-06-22T10:46:10;6.05;;;3.97;;
12892;SDS011;6514;48.606;9.222;2023-06-22T10:48:36;6.38;;;4.53;;
12892;SDS011;6514;48.606;9.222;2023-06-22T10:51:03;5.57;;;3.60;;
12892;SDS011;6514;48.606;9.222;2023-06-22T10:53:30;4.85;;;3.78;;
12892;SDS011;6514;48.606;9.222;2023-06-22T10:55:57;6.43;;;3.97;;
12892;SDS011;6514;48.606;9.222;2023-06-22T10:58:26;10.07;;;3.65;;
12892;SDS011;6514;48.606;9.222;2023-06-22T11:00:52;6.30;;;3.60;;
12892;SDS011;6514;48.606;9.222;2023-06-22T11:03:20;5.55;;;4.05;;
12892;SDS011;6514;48.606;9.222;2023-06-22T11:05:46;5.78;;;4.15;;
12892;SDS011;6514;48.606;9.222;2023-06-22T11:08:13;6.43;;;4.10;;
12892;SDS011;6514;48.606;9.222;2023-06-22T11:10:40;6.55;;;3.47;;
12892;SDS011;6514;48.606;9.222;2023-06-22T11:13:07;8.77;;;4.40;;
12892;SDS011;6514;48.606;9.222;2023-06-22T11:15:36;7.93;;;4.10;;
12892;SDS011;6514;48.606;9.222;2023-06-22T11:18:03;6.70;;;3.97;;
12892;SDS011;6514;48.606;9.222;2023-06-22T11:20:32;5.30;;;4.40;;
12892;SDS011;6514;48.606;9.222;2023-06-22T11:23:03;8.05;;;4.18;;
12892;SDS011;6514;48.606;9.222;2023-06-22T11:25:30;6.30;;;4.05;;
12892;SDS011;6514;48.606;9.222;2023-06-22T11:27:57;5.82;;;4.15;;
12892;SDS011;6514;48.606;9.222;2023-06-22T11:30:24;6.57;;;4.30;;
12892;SDS011;6514;48.606;9.222;2023-06-22T11:32:52;5.10;;;3.50;;
12892;SDS011;6514;48.606;9.222;2023-06-22T11:35:19;5.05;;;4.22;;
12892;SDS011;6514;48.606;9.222;2023-06-22T11:37:45;8.80;;;4.22;;
12892;SDS011;6514;48.606;9.222;2023-06-22T11:40:12;5.15;;;3.92;;
12892;SDS011;6514;48.606;9.222;2023-06-22T11:42:39;6.25;;;4.18;;
12892;SDS011;6514;48.606;9.222;2023-06-22T11:45:06;5.53;;;4.05;;
12892;SDS011;6514;48.606;9.222;2023-06-22T11:47:33;5.90;;;4.60;;
12892;SDS011;6514;48.606;9.222;2023-06-22T11:50:02;9.57;;;4.53;;
12892;SDS011;6514;48.606;9.222;2023-06-22T11:52:30;8.50;;;5.00;;
12892;SDS011;6514;48.606;9.222;2023-06-22T11:54:56;8.13;;;5.43;;
12892;SDS011;6514;48.606;9.222;2023-06-22T11:57:24;5.67;;;4.30;;
12892;SDS011;6514;48.606;9.222;2023-06-22T11:59:51;6.93;;;4.18;;
12892;SDS011;6514;48.606;9.222;2023-06-22T12:02:18;8.32;;;4.40;;
12892;SDS011;6514;48.606;9.222;2023-06-22T12:04:44;6.68;;;3.85;;
12892;SDS011;6514;48.606;9.222;2023-06-22T12:07:13;7.10;;;3.75;;
12892;SDS011;6514;48.606;9.222;2023-06-22T12:09:39;7.47;;;3.85;;
12892;SDS011;6514;48.606;9.222;2023-06-22T12:12:06;6.10;;;4.47;;
12892;SDS011;6514;48.606;9.222;2023-06-22T12:14:34;6.75;;;4.05;;
12892;SDS011;6514;48.606;9.222;2023-06-22T12:17:01;5.47;;;3.40;;
12892;SDS011;6514;48.606;9.222;2023-06-22T12:19:27;5.88;;;4.00;;
12892;SDS011;6514;48.606;9.222;2023-06-22T12:21:54;9.93;;;3.80;;
12892;SDS011;6514;48.606;9.222;2023-06-22T12:24:22;5.43;;;3.83;;
12892;SDS011;6514;48.606;9.222;2023-06-22T12:26:49;5.15;;;3.60;;
12892;SDS011;6514;48.606;9.222;2023-06-22T12:29:16;5.93;;;3.30;;
12892;SDS011;6514;48.606;9.222;2023-06-22T12:31:43;6.18;;;4.00;;
12892;SDS011;6514;48.606;9.222;2023-06-22T12:34:09;6.10;;;3.63;;
12892;SDS011;6514;48.606;9.222;2023-06-22T12:36:36;5.83;;;3.73;;
12892;SDS011;6514;48.606;9.222;2023-06-22T12:39:03;5.80;;;3.47;;
12892;SDS011;6514;48.606;9.222;2023-06-22T12:41:31;8.40;;;4.13;;
12892;SDS011;6514;48.606;9.222;2023-06-22T12:43:58;8.00;;;3.97;;
12892;SDS011;6514;48.606;9.222;2023-06-22T12:46:25;7.63;;;4.40;;
12892;SDS011;6514;48.606;9.222;2023-06-22T12:48:52;6.17;;;3.37;;
12892;SDS011;6514;48.606;9.222;2023-06-22T12:51:22;6.20;;;3.77;;
12892;SDS011;6514;48.606;9.222;2023-06-22T12:53:49;6.50;;;4.13;;
12892;SDS011;6514;48.606;9.222;2023-06-22T12:56:16;6.80;;;3.73;;
12892;SDS011;6514;48.606;9.222;2023-06-22T12:58:44;6.93;;;4.20;;
12892;SDS011;6514;48.606;9.222;2023-06-22T13:01:11;5.60;;;4.07;;
12892;SDS011;6514;48.606;9.222;2023-06-22T13:03:38;8.20;;;4.27;;
12892;SDS011;6514;48.606;9.222;2023-06-22T13:06:05;9.30;;;4.47;;
12892;SDS011;6514;48.606;9.222;2023-06-22T13:08:32;7.37;;;3.90;;
12892;SDS011;6514;48.606;9.222;2023-06-22T13:10:58;6.77;;;3.70;;
12892;SDS011;6514;48.606;9.222;2023-06-22T13:13:25;7.17;;;4.00;;
12892;SDS011;6514;48.606;9.222;2023-06-22T13:15:54;8.63;;;3.70;;
12892;SDS011;6514;48.606;9.222;2023-06-22T13:18:21;8.13;;;3.47;;
12892;SDS011;6514;48.606;9.222;2023-06-22T13:20:47;5.07;;;3.47;;
12892;SDS011;6514;48.606;9.222;2023-06-22T13:23:14;5.30;;;3.90;;
12892;SDS011;6514;48.606;9.222;2023-06-22T13:25:41;6.77;;;3.60;;
12892;SDS011;6514;48.606;9.222;2023-06-22T13:28:08;7.90;;;5.07;;
12892;SDS011;6514;48.606;9.222;2023-06-22T13:30:35;8.23;;;3.70;;
12892;SDS011;6514;48.606;9.222;2023-06-22T13:33:04;5.73;;;4.10;;
12892;SDS011;6514;48.606;9.222;2023-06-22T13:35:30;10.57;;;4.60;;
12892;SDS011;6514;48.606;9.222;2023-06-22T13:37:57;5.60;;;3.73;;
12892;SDS011;6514;48.606;9.222;2023-06-22T13:40:24;6.60;;;3.58;;
12892;SDS011;6514;48.606;9.222;2023-06-22T13:42:51;6.63;;;4.30;;
12892;SDS011;6514;48.606;9.222;2023-06-22T13:45:18;8.93;;;3.88;;
12892;SDS011;6514;48.606;9.222;2023-06-22T13:47:46;6.65;;;3.42;;
12892;SDS011;6514;48.606;9.222;2023-06-22T13:50:14;7.53;;;3.70;;
12892;SDS011;6514;48.606;9.222;2023-06-22T13:52:41;5.03;;;3.72;;
12892;SDS011;6514;48.606;9.222;2023-06-22T13:55:08;4.68;;;3.55;;
12892;SDS011;6514;48.606;9.222;2023-06-22T13:57:35;5.50;;;3.85;;
12892;SDS011;6514;48.606;9.222;2023-06-22T14:00:03;5.30;;;3.35;;
12892;SDS011;6514;48.606;9.222;2023-06-22T14:02:31;5.30;;;3.35;;
12892;SDS011;6514;48.606;9.222;2023-06-22T14:04:58;7.75;;;3.53;;
12892;SDS011;6514;48.606;9.222;2023-06-22T14:07:26;7.47;;;4.40;;
12892;SDS011;6514;48.606;9.222;2023-06-22T14:09:53;7.10;;;4.03;;
12892;SDS011;6514;48.606;9.222;2023-06-22T14:12:19;9.83;;;4.10;;
12892;SDS011;6514;48.606;9.222;2023-06-22T14:14:46;7.13;;;4.00;;
12892;SDS011;6514;48.606;9.222;2023-06-22T14:17:13;7.67;;;4.17;;
12892;SDS011;6514;48.606;9.222;2023-06-22T14:19:40;7.93;;;3.80;;
12892;SDS011;6514;48.606;9.222;2023-06-22T14:22:07;7.13;;;3.90;;
12892;SDS011;6514;48.606;9.222;2023-06-22T14:24:35;6.20;;;3.90;;
12892;SDS011;6514;48.606;9.222;2023-06-22T14:27:02;6.40;;;4.10;;
12892;SDS011;6514;48.606;9.222;2023-06-22T14:29:32;9.50;;;3.93;;
12892;SDS011;6514;48.606;9.222;2023-06-22T14:31:59;6.53;;;3.92;;
12892;SDS011;6514;48.606;9.222;2023-06-22T14:34:26;6.55;;;3.75;;
12892;SDS011;6514;48.606;9.222;2023-06-22T14:36:53;5.22;;;4.20;;
12892;SDS011;6514;48.606;9.222;2023-06-22T14:39:19;8.00;;;4.45;;
12892;SDS011;6514;48.606;9.222;2023-06-22T14:41:48;7.65;;;4.43;;
12892;SDS011;6514;48.606;9.222;2023-06-22T14:44:14;6.38;;;4.28;;
12892;SDS011;6514;48.606;9.222;2023-06-22T14:46:41;7.43;;;4.50;;
12892;SDS011;6514;48.606;9.222;2023-06-22T14:49:08;3.92;;;3.35;;
12892;SDS011;6514;48.606;9.222;2023-06-22T14:51:35;5.85;;;4.32;;
12892;SDS011;6514;48.606;9.222;2023-06-22T14:54:02;7.40;;;4.10;;
12892;SDS011;6514;48.606;9.222;2023-06-22T14:56:29;5.85;;;3.83;;
12892;SDS011;6514;48.606;9.222;2023-06-22T14:58:57;7.50;;;3.97;;
12892;SDS011;6514;48.606;9.222;2023-06-22T15:01:23;7.50;;;4.40;;